sensor_id;sensor_type;location;lat;lon;timestamp;P1;durP1;ratioP1;P2;durP2;ratioP2
37931;SDS011;23758;42.640;23.302;2023-09-08T00:01:52;1.90;;;1.80;;
37931;SDS011;23758;42.640;23.302;2023-09-08T00:04:18;1.90;;;1.80;;
37931;SDS011;23758;42.640;23.302;2023-09-08T00:06:45;2.03;;;1.92;;
37931;SDS011;23758;42.640;23.302;2023-09-08T00:09:11;2.47;;;2.30;;
37931;SDS011;23758;42.640;23.302;2023-09-08T00:11:36;2.22;;;2.13;;
37931;SDS011;23758;42.640;23.302;2023-09-08T00:14:02;2.25;;;2.15;;
37931;SDS011;23758;42.640;23.302;2023-09-08T00:16:28;2.05;;;1.95;;
37931;SDS011;23758;42.640;23.302;2023-09-08T00:18:54;1.90;;;1.80;;
37931;SDS011;23758;42.640;23.302;2023-09-08T00:21:20;1.90;;;1.80;;
37931;SDS011;23758;42.640;23.302;2023-09-08T00:23:45;1.80;;;1.70;;
37931;SDS011;23758;42.640;23.302;2023-09-08T00:26:11;1.95;;;1.85;;
37931;SDS011;23758;42.640;23.302;2023-09-08T00:28:36;2.00;;;1.90;;
37931;SDS011;23758;42.640;23.302;2023-09-08T00:31:02;2.20;;;2.10;;
37931;SDS011;23758;42.640;23.302;2023-09-08T00:33:27;1.90;;;1.80;;
37931;SDS011;23758;42.640;23.302;2023-09-08T00:35:52;2.47;;;2.33;;
37931;SDS011;23758;42.640;23.302;2023-09-08T00:38:18;1.80;;;1.70;;
37931;SDS011;23758;42.640;23.302;2023-09-08T00:40:44;1.90;;;1.80;;
37931;SDS011;23758;42.640;23.302;2023-09-08T00:43:10;1.88;;;1.77;;
37931;SDS011;23758;42.640;23.302;2023-09-08T00:45:40;1.77;;;1.67;;
37931;SDS011;23758;42.640;23.302;2023-09-08T00:48:07;1.98;;;1.88;;
37931;SDS011;23758;42.640;23.302;2023-09-08T00:50:32;1.70;;;1.60;;
37931;SDS011;23758;42.640;23.302;2023-09-08T00:52:59;1.85;;;1.75;;
37931;SDS011;23758;42.640;23.302;2023-09-08T00:55:25;1.90;;;1.80;;
37931;SDS011;23758;42.640;23.302;2023-09-08T00:57:50;2.10;;;1.90;;
37931;SDS011;23758;42.640;23.302;2023-09-08T01:00:16;1.88;;;1.77;;
37931;SDS011;23758;42.640;23.302;2023-09-08T01:02:41;2.13;;;2.03;;
37931;SDS011;23758;42.640;23.302;2023-09-08T01:05:10;2.10;;;2.00;;
37931;SDS011;23758;42.640;23.302;2023-09-08T01:07:35;1.92;;;1.83;;
37931;SDS011;23758;42.640;23.302;2023-09-08T01:10:01;2.10;;;2.00;;
37931;SDS011;23758;42.640;23.302;2023-09-08T01:12:31;1.90;;;1.80;;
37931;SDS011;23758;42.640;23.302;2023-09-08T01:14:58;1.90;;;1.80;;
37931;SDS011;23758;42.640;23.302;2023-09-08T01:17:23;1.90;;;1.80;;
37931;SDS011;23758;42.640;23.302;2023-09-08T01:19:50;2.00;;;1.90;;
37931;SDS011;23758;42.640;23.302;2023-09-08T01:22:30;1.90;;;1.80;;
37931;SDS011;23758;42.640;23.302;2023-09-08T01:25:06;2.30;;;2.10;;
37931;SDS011;23758;42.640;23.302;2023-09-08T01:27:40;1.90;;;1.80;;
37931;SDS011;23758;42.640;23.302;2023-09-08T01:30:10;2.45;;;1.98;;
37931;SDS011;23758;42.640;23.302;2023-09-08T01:32:38;2.05;;;1.95;;
37931;SDS011;23758;42.640;23.302;2023-09-08T01:35:04;1.90;;;1.80;;
37931;SDS011;23758;42.640;23.302;2023-09-08T01:37:29;2.00;;;1.90;;
37931;SDS011;23758;42.640;23.302;2023-09-08T01:39:55;1.90;;;1.80;;
37931;SDS011;23758;42.640;23.302;2023-09-08T01:42:20;2.28;;;2.17;;
37931;SDS011;23758;42.640;23.302;2023-09-08T01:44:46;2.10;;;2.00;;
37931;SDS011;23758;42.640;23.302;2023-09-08T01:47:11;1.80;;;1.70;;
37931;SDS011;23758;42.640;23.302;2023-09-08T01:49:37;2.10;;;2.00;;
37931;SDS011;23758;42.640;23.302;2023-09-08T01:52:03;2.00;;;1.90;;
37931;SDS011;23758;42.640;23.302;2023-09-08T01:54:28;1.90;;;1.80;;
37931;SDS011;23758;42.640;23.302;2023-09-08T01:56:54;1.80;;;1.70;;
37931;SDS011;23758;42.640;23.302;2023-09-08T01:59:19;1.98;;;1.88;;
37931;SDS011;23758;42.640;23.302;2023-09-08T02:01:45;1.90;;;1.80;;
37931;SDS011;23758;42.640;23.302;2023-09-08T02:04:10;1.92;;;1.83;;
37931;SDS011;23758;42.640;23.302;2023-09-08T02:06:36;2.75;;;2.55;;
37931;SDS011;23758;42.640;23.302;2023-09-08T02:09:01;2.10;;;1.90;;
37931;SDS011;23758;42.640;23.302;2023-09-08T02:11:26;2.08;;;1.98;;
37931;SDS011;23758;42.640;23.302;2023-09-08T02:13:52;2.17;;;1.88;;
37931;SDS011;23758;42.640;23.302;2023-09-08T02:16:17;2.13;;;1.92;;
37931;SDS011;23758;42.640;23.302;2023-09-08T02:18:43;2.33;;;2.13;;
37931;SDS011;23758;42.640;23.302;2023-09-08T02:21:09;2.20;;;2.10;;
37931;SDS011;23758;42.640;23.302;2023-09-08T02:23:34;2.10;;;2.00;;
37931;SDS011;23758;42.640;23.302;2023-09-08T02:26:00;2.70;;;2.50;;
37931;SDS011;23758;42.640;23.302;2023-09-08T02:28:26;2.20;;;2.10;;
37931;SDS011;23758;42.640;23.302;2023-09-08T02:30:51;2.92;;;2.72;;
37931;SDS011;23758;42.640;23.302;2023-09-08T02:33:16;2.85;;;2.33;;
37931;SDS011;23758;42.640;23.302;2023-09-08T02:35:42;2.20;;;2.10;;
37931;SDS011;23758;42.640;23.302;2023-09-08T02:38:08;2.08;;;1.98;;
37931;SDS011;23758;42.640;23.302;2023-09-08T02:40:34;2.58;;;2.38;;
37931;SDS011;23758;42.640;23.302;2023-09-08T02:43:02;2.25;;;2.15;;
37931;SDS011;23758;42.640;23.302;2023-09-08T02:45:28;2.10;;;2.00;;
37931;SDS011;23758;42.640;23.302;2023-09-08T02:47:54;2.10;;;2.00;;
37931;SDS011;23758;42.640;23.302;2023-09-08T02:50:20;2.10;;;2.00;;
37931;SDS011;23758;42.640;23.302;2023-09-08T02:52:45;2.15;;;2.05;;
37931;SDS011;23758;42.640;23.302;2023-09-08T02:55:11;2.20;;;2.10;;
37931;SDS011;23758;42.640;23.302;2023-09-08T02:57:37;2.05;;;1.95;;
37931;SDS011;23758;42.640;23.302;2023-09-08T03:00:04;2.20;;;2.10;;
37931;SDS011;23758;42.640;23.302;2023-09-08T03:02:30;2.05;;;1.95;;
37931;SDS011;23758;42.640;23.302;2023-09-08T03:04:56;2.17;;;2.08;;
37931;SDS011;23758;42.640;23.302;2023-09-08T03:07:21;2.25;;;2.15;;
37931;SDS011;23758;42.640;23.302;2023-09-08T03:09:47;2.08;;;1.98;;
37931;SDS011;23758;42.640;23.302;2023-09-08T03:12:12;2.10;;;2.00;;
37931;SDS011;23758;42.640;23.302;2023-09-08T03:14:38;2.22;;;2.10;;
37931;SDS011;23758;42.640;23.302;2023-09-08T03:17:03;2.35;;;2.25;;
37931;SDS011;23758;42.640;23.302;2023-09-08T03:19:29;2.20;;;2.10;;
37931;SDS011;23758;42.640;23.302;2023-09-08T03:21:54;3.03;;;2.72;;
37931;SDS011;23758;42.640;23.302;2023-09-08T03:24:20;2.05;;;1.95;;
37931;SDS011;23758;42.640;23.302;2023-09-08T03:26:45;2.20;;;2.10;;
37931;SDS011;23758;42.640;23.302;2023-09-08T03:29:10;2.30;;;2.20;;
37931;SDS011;23758;42.640;23.302;2023-09-08T03:31:36;2.40;;;2.28;;
37931;SDS011;23758;42.640;23.302;2023-09-08T03:34:01;2.10;;;2.00;;
37931;SDS011;23758;42.640;23.302;2023-09-08T03:36:27;2.67;;;2.15;;
37931;SDS011;23758;42.640;23.302;2023-09-08T03:38:52;2.60;;;2.40;;
37931;SDS011;23758;42.640;23.302;2023-09-08T03:41:18;2.45;;;2.33;;
37931;SDS011;23758;42.640;23.302;2023-09-08T03:43:43;3.05;;;2.80;;
37931;SDS011;23758;42.640;23.302;2023-09-08T03:46:09;2.67;;;2.47;;
37931;SDS011;23758;42.640;23.302;2023-09-08T03:48:34;3.00;;;2.80;;
37931;SDS011;23758;42.640;23.302;2023-09-08T03:51:00;2.85;;;2.65;;
37931;SDS011;23758;42.640;23.302;2023-09-08T03:53:25;2.95;;;2.75;;
37931;SDS011;23758;42.640;23.302;2023-09-08T03:55:51;3.10;;;2.90;;
37931;SDS011;23758;42.640;23.302;2023-09-08T03:58:16;4.55;;;4.18;;
37931;SDS011;23758;42.640;23.302;2023-09-08T04:00:42;3.47;;;3.28;;
37931;SDS011;23758;42.640;23.302;2023-09-08T04:03:08;3.40;;;3.20;;
37931;SDS011;23758;42.640;23.302;2023-09-08T04:05:33;3.20;;;3.00;;
37931;SDS011;23758;42.640;23.302;2023-09-08T04:07:59;3.85;;;3.55;;
37931;SDS011;23758;42.640;23.302;2023-09-08T04:10:24;3.53;;;3.33;;
37931;SDS011;23758;42.640;23.302;2023-09-08T04:12:50;3.92;;;3.63;;
37931;SDS011;23758;42.640;23.302;2023-09-08T04:15:15;3.22;;;3.03;;
37931;SDS011;23758;42.640;23.302;2023-09-08T04:17:41;3.47;;;3.28;;
37931;SDS011;23758;42.640;23.302;2023-09-08T04:20:07;3.47;;;3.28;;
37931;SDS011;23758;42.640;23.302;2023-09-08T04:22:34;3.60;;;3.40;;
37931;SDS011;23758;42.640;23.302;2023-09-08T04:25:00;3.30;;;3.10;;
37931;SDS011;23758;42.640;23.302;2023-09-08T04:27:26;3.83;;;3.58;;
37931;SDS011;23758;42.640;23.302;2023-09-08T04:29:51;3.80;;;3.60;;
37931;SDS011;23758;42.640;23.302;2023-09-08T04:32:17;4.10;;;3.80;;
37931;SDS011;23758;42.640;23.302;2023-09-08T04:34:42;3.97;;;3.70;;
37931;SDS011;23758;42.640;23.302;2023-09-08T04:37:08;3.85;;;3.63;;
37931;SDS011;23758;42.640;23.302;2023-09-08T04:39:34;3.90;;;3.70;;
37931;SDS011;23758;42.640;23.302;2023-09-08T04:42:00;3.45;;;3.25;;
37931;SDS011;23758;42.640;23.302;2023-09-08T04:44:29;3.25;;;3.05;;
37931;SDS011;23758;42.640;23.302;2023-09-08T04:46:54;2.50;;;2.35;;
37931;SDS011;23758;42.640;23.302;2023-09-08T04:49:20;3.28;;;3.08;;
37931;SDS011;23758;42.640;23.302;2023-09-08T04:51:45;2.90;;;2.70;;
37931;SDS011;23758;42.640;23.302;2023-09-08T04:54:11;1.90;;;1.80;;
37931;SDS011;23758;42.640;23.302;2023-09-08T04:56:38;1.85;;;1.75;;
37931;SDS011;23758;42.640;23.302;2023-09-08T04:59:04;1.65;;;1.55;;
37931;SDS011;23758;42.640;23.302;2023-09-08T05:01:30;1.80;;;1.70;;
37931;SDS011;23758;42.640;23.302;2023-09-08T05:03:57;1.83;;;1.73;;
37931;SDS011;23758;42.640;23.302;2023-09-08T05:06:24;1.85;;;1.63;;
37931;SDS011;23758;42.640;23.302;2023-09-08T05:08:49;1.67;;;1.58;;
37931;SDS011;23758;42.640;23.302;2023-09-08T05:11:15;1.90;;;1.80;;
37931;SDS011;23758;42.640;23.302;2023-09-08T05:13:41;1.80;;;1.70;;
37931;SDS011;23758;42.640;23.302;2023-09-08T05:16:06;2.10;;;2.00;;
37931;SDS011;23758;42.640;23.302;2023-09-08T05:18:41;2.22;;;2.13;;
37931;SDS011;23758;42.640;23.302;2023-09-08T05:21:06;2.08;;;1.98;;
37931;SDS011;23758;42.640;23.302;2023-09-08T05:23:32;2.35;;;2.15;;
37931;SDS011;23758;42.640;23.302;2023-09-08T05:25:58;2.80;;;2.60;;
37931;SDS011;23758;42.640;23.302;2023-09-08T05:28:24;2.40;;;2.20;;
37931;SDS011;23758;42.640;23.302;2023-09-08T05:30:52;3.33;;;2.30;;
37931;SDS011;23758;42.640;23.302;2023-09-08T05:33:18;2.50;;;2.30;;
37931;SDS011;23758;42.640;23.302;2023-09-08T05:35:44;1.90;;;1.80;;
37931;SDS011;23758;42.640;23.302;2023-09-08T05:38:10;2.00;;;1.90;;
37931;SDS011;23758;42.640;23.302;2023-09-08T05:40:36;1.95;;;1.85;;
37931;SDS011;23758;42.640;23.302;2023-09-08T05:43:01;2.10;;;2.00;;
37931;SDS011;23758;42.640;23.302;2023-09-08T05:45:27;2.20;;;2.00;;
37931;SDS011;23758;42.640;23.302;2023-09-08T05:47:52;2.05;;;1.95;;
37931;SDS011;23758;42.640;23.302;2023-09-08T05:50:18;2.08;;;1.98;;
37931;SDS011;23758;42.640;23.302;2023-09-08T05:52:44;2.22;;;2.10;;
37931;SDS011;23758;42.640;23.302;2023-09-08T05:55:09;2.30;;;2.20;;
37931;SDS011;23758;42.640;23.302;2023-09-08T05:57:35;2.25;;;2.05;;
37931;SDS011;23758;42.640;23.302;2023-09-08T06:00:02;2.10;;;2.00;;
37931;SDS011;23758;42.640;23.302;2023-09-08T06:02:28;2.30;;;2.10;;
37931;SDS011;23758;42.640;23.302;2023-09-08T06:04:54;1.98;;;1.88;;
37931;SDS011;23758;42.640;23.302;2023-09-08T06:07:20;1.80;;;1.70;;
37931;SDS011;23758;42.640;23.302;2023-09-08T06:09:46;1.90;;;1.80;;
37931;SDS011;23758;42.640;23.302;2023-09-08T06:12:12;1.80;;;1.70;;
37931;SDS011;23758;42.640;23.302;2023-09-08T06:14:37;1.90;;;1.80;;
37931;SDS011;23758;42.640;23.302;2023-09-08T06:17:03;2.00;;;1.90;;
37931;SDS011;23758;42.640;23.302;2023-09-08T06:19:28;2.15;;;2.05;;
37931;SDS011;23758;42.640;23.302;2023-09-08T06:21:53;2.20;;;2.10;;
37931;SDS011;23758;42.640;23.302;2023-09-08T06:24:19;2.05;;;1.95;;
37931;SDS011;23758;42.640;23.302;2023-09-08T06:26:44;2.20;;;2.10;;
37931;SDS011;23758;42.640;23.302;2023-09-08T06:29:10;4.47;;;2.70;;
37931;SDS011;23758;42.640;23.302;2023-09-08T06:31:35;2.30;;;2.20;;
37931;SDS011;23758;42.640;23.302;2023-09-08T06:34:01;2.22;;;2.13;;
37931;SDS011;23758;42.640;23.302;2023-09-08T06:36:26;2.40;;;2.30;;
37931;SDS011;23758;42.640;23.302;2023-09-08T06:38:52;2.80;;;2.28;;
37931;SDS011;23758;42.640;23.302;2023-09-08T06:41:17;2.30;;;2.20;;
37931;SDS011;23758;42.640;23.302;2023-09-08T06:43:43;2.30;;;2.20;;
37931;SDS011;23758;42.640;23.302;2023-09-08T06:46:09;2.00;;;1.90;;
37931;SDS011;23758;42.640;23.302;2023-09-08T06:48:35;1.70;;;1.60;;
37931;SDS011;23758;42.640;23.302;2023-09-08T06:51:00;1.85;;;1.75;;
37931;SDS011;23758;42.640;23.302;2023-09-08T06:53:26;1.92;;;1.83;;
37931;SDS011;23758;42.640;23.302;2023-09-08T06:55:51;2.25;;;2.10;;
37931;SDS011;23758;42.640;23.302;2023-09-08T06:58:17;1.73;;;1.63;;
37931;SDS011;23758;42.640;23.302;2023-09-08T07:00:42;1.70;;;1.60;;
37931;SDS011;23758;42.640;23.302;2023-09-08T07:03:08;1.90;;;1.80;;
37931;SDS011;23758;42.640;23.302;2023-09-08T07:05:34;2.00;;;1.90;;
37931;SDS011;23758;42.640;23.302;2023-09-08T07:07:59;1.90;;;1.80;;
37931;SDS011;23758;42.640;23.302;2023-09-08T07:10:25;1.90;;;1.80;;
37931;SDS011;23758;42.640;23.302;2023-09-08T07:12:51;2.20;;;2.00;;
37931;SDS011;23758;42.640;23.302;2023-09-08T07:15:16;1.88;;;1.77;;
37931;SDS011;23758;42.640;23.302;2023-09-08T07:17:42;2.08;;;1.98;;
37931;SDS011;23758;42.640;23.302;2023-09-08T07:20:07;2.00;;;1.90;;
37931;SDS011;23758;42.640;23.302;2023-09-08T07:22:33;2.00;;;1.90;;
37931;SDS011;23758;42.640;23.302;2023-09-08T07:24:58;2.08;;;1.98;;
37931;SDS011;23758;42.640;23.302;2023-09-08T07:27:24;1.80;;;1.70;;
37931;SDS011;23758;42.640;23.302;2023-09-08T07:29:49;1.90;;;1.80;;
37931;SDS011;23758;42.640;23.302;2023-09-08T07:32:18;2.85;;;1.80;;
37931;SDS011;23758;42.640;23.302;2023-09-08T07:34:43;2.38;;;2.17;;
37931;SDS011;23758;42.640;23.302;2023-09-08T07:37:09;1.83;;;1.73;;
37931;SDS011;23758;42.640;23.302;2023-09-08T07:39:35;1.95;;;1.85;;
37931;SDS011;23758;42.640;23.302;2023-09-08T07:42:00;1.60;;;1.50;;
37931;SDS011;23758;42.640;23.302;2023-09-08T07:44:26;1.70;;;1.60;;
37931;SDS011;23758;42.640;23.302;2023-09-08T07:46:52;1.63;;;1.52;;
37931;SDS011;23758;42.640;23.302;2023-09-08T07:49:18;1.90;;;1.67;;
37931;SDS011;23758;42.640;23.302;2023-09-08T07:51:46;1.83;;;1.73;;
37931;SDS011;23758;42.640;23.302;2023-09-08T07:54:12;1.50;;;1.40;;
37931;SDS011;23758;42.640;23.302;2023-09-08T07:56:38;1.50;;;1.40;;
37931;SDS011;23758;42.640;23.302;2023-09-08T07:59:05;1.63;;;1.52;;
37931;SDS011;23758;42.640;23.302;2023-09-08T08:01:31;1.77;;;1.67;;
37931;SDS011;23758;42.640;23.302;2023-09-08T08:03:57;1.45;;;1.35;;
37931;SDS011;23758;42.640;23.302;2023-09-08T08:06:22;1.40;;;1.30;;
37931;SDS011;23758;42.640;23.302;2023-09-08T08:08:48;1.48;;;1.38;;
37931;SDS011;23758;42.640;23.302;2023-09-08T08:11:14;1.90;;;1.80;;
37931;SDS011;23758;42.640;23.302;2023-09-08T08:13:42;1.40;;;1.30;;
37931;SDS011;23758;42.640;23.302;2023-09-08T08:16:08;1.63;;;1.52;;
37931;SDS011;23758;42.640;23.302;2023-09-08T08:18:33;1.45;;;1.35;;
37931;SDS011;23758;42.640;23.302;2023-09-08T08:20:59;1.45;;;1.35;;
37931;SDS011;23758;42.640;23.302;2023-09-08T08:23:25;1.50;;;1.40;;
37931;SDS011;23758;42.640;23.302;2023-09-08T08:25:51;1.63;;;1.52;;
37931;SDS011;23758;42.640;23.302;2023-09-08T08:28:16;1.50;;;1.40;;
37931;SDS011;23758;42.640;23.302;2023-09-08T08:30:42;1.50;;;1.40;;
37931;SDS011;23758;42.640;23.302;2023-09-08T08:33:07;1.50;;;1.40;;
37931;SDS011;23758;42.640;23.302;2023-09-08T08:35:33;1.63;;;1.52;;
37931;SDS011;23758;42.640;23.302;2023-09-08T08:37:59;1.20;;;1.20;;
37931;SDS011;23758;42.640;23.302;2023-09-08T08:40:27;1.63;;;1.52;;
37931;SDS011;23758;42.640;23.302;2023-09-08T08:42:54;1.55;;;1.45;;
37931;SDS011;23758;42.640;23.302;2023-09-08T08:45:21;1.77;;;1.67;;
37931;SDS011;23758;42.640;23.302;2023-09-08T08:47:48;1.42;;;1.33;;
37931;SDS011;23758;42.640;23.302;2023-09-08T08:50:14;1.88;;;1.63;;
37931;SDS011;23758;42.640;23.302;2023-09-08T08:52:42;1.58;;;1.48;;
37931;SDS011;23758;42.640;23.302;2023-09-08T08:55:07;1.40;;;1.33;;
37931;SDS011;23758;42.640;23.302;2023-09-08T08:57:33;1.67;;;1.58;;
37931;SDS011;23758;42.640;23.302;2023-09-08T08:59:59;1.50;;;1.40;;
37931;SDS011;23758;42.640;23.302;2023-09-08T09:02:25;1.70;;;1.60;;
37931;SDS011;23758;42.640;23.302;2023-09-08T09:04:51;1.60;;;1.50;;
37931;SDS011;23758;42.640;23.302;2023-09-08T09:07:16;1.58;;;1.48;;
37931;SDS011;23758;42.640;23.302;2023-09-08T09:09:43;1.90;;;1.80;;
37931;SDS011;23758;42.640;23.302;2023-09-08T09:12:09;1.50;;;1.40;;
37931;SDS011;23758;42.640;23.302;2023-09-08T09:14:34;1.50;;;1.40;;
37931;SDS011;23758;42.640;23.302;2023-09-08T09:17:00;1.65;;;1.55;;
37931;SDS011;23758;42.640;23.302;2023-09-08T09:19:26;1.50;;;1.40;;
37931;SDS011;23758;42.640;23.302;2023-09-08T09:21:56;16.42;;;2.15;;
37931;SDS011;23758;42.640;23.302;2023-09-08T09:27:03;1.40;;;1.30;;
37931;SDS011;23758;42.640;23.302;2023-09-08T09:29:31;1.45;;;1.35;;
37931;SDS011;23758;42.640;23.302;2023-09-08T09:32:02;1.40;;;1.30;;
37931;SDS011;23758;42.640;23.302;2023-09-08T09:34:33;1.40;;;1.30;;
37931;SDS011;23758;42.640;23.302;2023-09-08T09:36:58;1.38;;;1.27;;
37931;SDS011;23758;42.640;23.302;2023-09-08T09:39:26;1.55;;;1.30;;
37931;SDS011;23758;42.640;23.302;2023-09-08T09:41:57;1.30;;;1.20;;
37931;SDS011;23758;42.640;23.302;2023-09-08T09:44:24;1.60;;;1.50;;
37931;SDS011;23758;42.640;23.302;2023-09-08T09:46:53;1.30;;;1.20;;
37931;SDS011;23758;42.640;23.302;2023-09-08T09:49:18;1.40;;;1.30;;
37931;SDS011;23758;42.640;23.302;2023-09-08T09:51:45;1.40;;;1.30;;
37931;SDS011;23758;42.640;23.302;2023-09-08T09:54:12;1.42;;;1.33;;
37931;SDS011;23758;42.640;23.302;2023-09-08T09:56:38;1.42;;;1.33;;
37931;SDS011;23758;42.640;23.302;2023-09-08T09:59:04;1.20;;;1.20;;
37931;SDS011;23758;42.640;23.302;2023-09-08T10:01:35;1.40;;;1.30;;
37931;SDS011;23758;42.640;23.302;2023-09-08T10:04:02;1.30;;;1.25;;
37931;SDS011;23758;42.640;23.302;2023-09-08T10:06:30;1.45;;;1.35;;
37931;SDS011;23758;42.640;23.302;2023-09-08T10:08:58;1.52;;;1.42;;
37931;SDS011;23758;42.640;23.302;2023-09-08T10:11:30;1.40;;;1.30;;
37931;SDS011;23758;42.640;23.302;2023-09-08T10:14:03;1.40;;;1.30;;
37931;SDS011;23758;42.640;23.302;2023-09-08T10:16:30;1.50;;;1.40;;
37931;SDS011;23758;42.640;23.302;2023-09-08T10:18:59;1.60;;;1.50;;
37931;SDS011;23758;42.640;23.302;2023-09-08T10:21:26;1.70;;;1.60;;
37931;SDS011;23758;42.640;23.302;2023-09-08T10:24:26;1.52;;;1.42;;
37931;SDS011;23758;42.640;23.302;2023-09-08T10:26:51;1.17;;;1.17;;
37931;SDS011;23758;42.640;23.302;2023-09-08T10:29:30;1.27;;;1.23;;
37931;SDS011;23758;42.640;23.302;2023-09-08T10:31:56;1.10;;;1.10;;
37931;SDS011;23758;42.640;23.302;2023-09-08T10:34:23;1.40;;;1.27;;
37931;SDS011;23758;42.640;23.302;2023-09-08T10:36:49;1.10;;;1.10;;
37931;SDS011;23758;42.640;23.302;2023-09-08T10:42:18;1.95;;;1.20;;
37931;SDS011;23758;42.640;23.302;2023-09-08T10:47:18;1.20;;;1.20;;
37931;SDS011;23758;42.640;23.302;2023-09-08T10:49:44;1.00;;;1.00;;
37931;SDS011;23758;42.640;23.302;2023-09-08T10:52:11;1.17;;;1.17;;
37931;SDS011;23758;42.640;23.302;2023-09-08T10:54:40;1.23;;;1.20;;
37931;SDS011;23758;42.640;23.302;2023-09-08T10:57:13;1.60;;;1.50;;
37931;SDS011;23758;42.640;23.302;2023-09-08T10:59:40;1.60;;;1.50;;
37931;SDS011;23758;42.640;23.302;2023-09-08T11:02:31;3.80;;;2.08;;
37931;SDS011;23758;42.640;23.302;2023-09-08T11:05:06;1.60;;;1.50;;
37931;SDS011;23758;42.640;23.302;2023-09-08T11:07:32;1.50;;;1.40;;
37931;SDS011;23758;42.640;23.302;2023-09-08T11:10:01;1.60;;;1.50;;
37931;SDS011;23758;42.640;23.302;2023-09-08T11:12:27;1.70;;;1.60;;
37931;SDS011;23758;42.640;23.302;2023-09-08T11:14:53;2.00;;;1.90;;
37931;SDS011;23758;42.640;23.302;2023-09-08T11:17:19;1.92;;;1.83;;
37931;SDS011;23758;42.640;23.302;2023-09-08T11:19:48;2.33;;;2.13;;
37931;SDS011;23758;42.640;23.302;2023-09-08T11:22:15;1.90;;;1.80;;
37931;SDS011;23758;42.640;23.302;2023-09-08T11:24:41;2.25;;;2.15;;
37931;SDS011;23758;42.640;23.302;2023-09-08T11:27:07;1.90;;;1.80;;
37931;SDS011;23758;42.640;23.302;2023-09-08T11:29:34;1.85;;;1.75;;
37931;SDS011;23758;42.640;23.302;2023-09-08T11:31:59;1.60;;;1.50;;
37931;SDS011;23758;42.640;23.302;2023-09-08T11:34:25;1.70;;;1.60;;
37931;SDS011;23758;42.640;23.302;2023-09-08T11:36:50;1.98;;;1.75;;
37931;SDS011;23758;42.640;23.302;2023-09-08T11:39:17;1.70;;;1.60;;
37931;SDS011;23758;42.640;23.302;2023-09-08T11:41:45;1.70;;;1.60;;
37931;SDS011;23758;42.640;23.302;2023-09-08T11:44:15;1.80;;;1.70;;
37931;SDS011;23758;42.640;23.302;2023-09-08T11:46:41;1.80;;;1.70;;
37931;SDS011;23758;42.640;23.302;2023-09-08T11:49:07;1.77;;;1.67;;
37931;SDS011;23758;42.640;23.302;2023-09-08T11:51:32;1.33;;;1.23;;
37931;SDS011;23758;42.640;23.302;2023-09-08T11:53:58;1.50;;;1.40;;
37931;SDS011;23758;42.640;23.302;2023-09-08T11:56:23;2.15;;;1.52;;
37931;SDS011;23758;42.640;23.302;2023-09-08T11:58:49;1.40;;;1.30;;
37931;SDS011;23758;42.640;23.302;2023-09-08T12:01:15;1.17;;;1.17;;
37931;SDS011;23758;42.640;23.302;2023-09-08T12:03:53;1.40;;;1.30;;
37931;SDS011;23758;42.640;23.302;2023-09-08T12:06:19;1.50;;;1.40;;
37931;SDS011;23758;42.640;23.302;2023-09-08T12:08:44;1.25;;;1.20;;
37931;SDS011;23758;42.640;23.302;2023-09-08T12:11:10;1.10;;;1.10;;
37931;SDS011;23758;42.640;23.302;2023-09-08T12:13:36;1.10;;;1.10;;
37931;SDS011;23758;42.640;23.302;2023-09-08T12:16:01;1.02;;;1.02;;
37931;SDS011;23758;42.640;23.302;2023-09-08T12:18:39;1.00;;;1.00;;
37931;SDS011;23758;42.640;23.302;2023-09-08T12:21:05;1.00;;;1.00;;
37931;SDS011;23758;42.640;23.302;2023-09-08T12:23:30;1.00;;;1.00;;
37931;SDS011;23758;42.640;23.302;2023-09-08T12:25:56;1.48;;;1.38;;
37931;SDS011;23758;42.640;23.302;2023-09-08T12:28:22;1.75;;;1.48;;
37931;SDS011;23758;42.640;23.302;2023-09-08T12:30:51;1.48;;;1.38;;
37931;SDS011;23758;42.640;23.302;2023-09-08T12:33:18;1.50;;;1.40;;
37931;SDS011;23758;42.640;23.302;2023-09-08T12:35:45;1.48;;;1.38;;
37931;SDS011;23758;42.640;23.302;2023-09-08T12:38:13;1.88;;;1.67;;
37931;SDS011;23758;42.640;23.302;2023-09-08T12:40:39;1.80;;;1.70;;
37931;SDS011;23758;42.640;23.302;2023-09-08T12:43:04;1.40;;;1.30;;
37931;SDS011;23758;42.640;23.302;2023-09-08T12:45:30;1.50;;;1.40;;
37931;SDS011;23758;42.640;23.302;2023-09-08T12:48:00;1.60;;;1.50;;
37931;SDS011;23758;42.640;23.302;2023-09-08T12:50:27;1.95;;;1.83;;
37931;SDS011;23758;42.640;23.302;2023-09-08T12:52:53;1.85;;;1.75;;
37931;SDS011;23758;42.640;23.302;2023-09-08T12:55:18;3.08;;;1.83;;
37931;SDS011;23758;42.640;23.302;2023-09-08T12:57:44;1.85;;;1.75;;
37931;SDS011;23758;42.640;23.302;2023-09-08T13:00:10;1.60;;;1.50;;
37931;SDS011;23758;42.640;23.302;2023-09-08T13:02:36;2.10;;;2.00;;
37931;SDS011;23758;42.640;23.302;2023-09-08T13:05:02;2.08;;;1.98;;
37931;SDS011;23758;42.640;23.302;2023-09-08T13:07:27;1.90;;;1.80;;
37931;SDS011;23758;42.640;23.302;2023-09-08T13:09:53;2.13;;;2.03;;
37931;SDS011;23758;42.640;23.302;2023-09-08T13:12:19;2.13;;;2.03;;
37931;SDS011;23758;42.640;23.302;2023-09-08T13:14:44;2.03;;;1.92;;
37931;SDS011;23758;42.640;23.302;2023-09-08T13:17:10;1.95;;;1.85;;
37931;SDS011;23758;42.640;23.302;2023-09-08T13:19:36;2.03;;;1.92;;
37931;SDS011;23758;42.640;23.302;2023-09-08T13:22:03;1.90;;;1.80;;
37931;SDS011;23758;42.640;23.302;2023-09-08T13:24:31;1.92;;;1.80;;
37931;SDS011;23758;42.640;23.302;2023-09-08T13:26:57;2.05;;;1.95;;
37931;SDS011;23758;42.640;23.302;2023-09-08T13:29:22;2.60;;;1.85;;
37931;SDS011;23758;42.640;23.302;2023-09-08T13:31:48;2.10;;;1.90;;
37931;SDS011;23758;42.640;23.302;2023-09-08T13:34:13;2.13;;;2.00;;
37931;SDS011;23758;42.640;23.302;2023-09-08T13:36:39;1.80;;;1.70;;
37931;SDS011;23758;42.640;23.302;2023-09-08T13:39:04;2.03;;;1.92;;
37931;SDS011;23758;42.640;23.302;2023-09-08T13:41:46;1.70;;;1.60;;
37931;SDS011;23758;42.640;23.302;2023-09-08T13:44:13;1.90;;;1.80;;
37931;SDS011;23758;42.640;23.302;2023-09-08T13:46:38;1.88;;;1.77;;
37931;SDS011;23758;42.640;23.302;2023-09-08T13:49:04;1.95;;;1.85;;
37931;SDS011;23758;42.640;23.302;2023-09-08T13:51:29;2.05;;;1.95;;
37931;SDS011;23758;42.640;23.302;2023-09-08T13:53:54;1.70;;;1.60;;
37931;SDS011;23758;42.640;23.302;2023-09-08T13:56:20;2.38;;;1.88;;
37931;SDS011;23758;42.640;23.302;2023-09-08T13:58:45;1.80;;;1.70;;
37931;SDS011;23758;42.640;23.302;2023-09-08T14:01:11;1.80;;;1.70;;
37931;SDS011;23758;42.640;23.302;2023-09-08T14:03:36;1.70;;;1.60;;
37931;SDS011;23758;42.640;23.302;2023-09-08T14:06:02;1.75;;;1.65;;
37931;SDS011;23758;42.640;23.302;2023-09-08T14:08:27;1.80;;;1.70;;
37931;SDS011;23758;42.640;23.302;2023-09-08T14:10:53;1.90;;;1.80;;
37931;SDS011;23758;42.640;23.302;2023-09-08T14:13:19;2.47;;;2.28;;
37931;SDS011;23758;42.640;23.302;2023-09-08T14:15:44;1.90;;;1.80;;
37931;SDS011;23758;42.640;23.302;2023-09-08T14:18:10;1.75;;;1.65;;
37931;SDS011;23758;42.640;23.302;2023-09-08T14:20:35;2.03;;;1.92;;
37931;SDS011;23758;42.640;23.302;2023-09-08T14:23:01;1.83;;;1.73;;
37931;SDS011;23758;42.640;23.302;2023-09-08T14:25:27;1.80;;;1.70;;
37931;SDS011;23758;42.640;23.302;2023-09-08T14:27:52;1.70;;;1.60;;
37931;SDS011;23758;42.640;23.302;2023-09-08T14:30:18;1.73;;;1.63;;
37931;SDS011;23758;42.640;23.302;2023-09-08T14:32:43;1.80;;;1.70;;
37931;SDS011;23758;42.640;23.302;2023-09-08T14:35:09;1.70;;;1.60;;
37931;SDS011;23758;42.640;23.302;2023-09-08T14:37:34;2.22;;;1.98;;